sensor_id;sensor_type;location;lat;lon;timestamp;P1;durP1;ratioP1;P2;durP2;ratioP2
7573;SDS011;3828;48.922;9.116;2023-05-19T00:01:07;0.80;;;0.80;;
7573;SDS011;3828;48.922;9.116;2023-05-19T00:03:53;0.80;;;0.80;;
7573;SDS011;3828;48.922;9.116;2023-05-19T00:06:22;0.80;;;0.80;;
7573;SDS011;3828;48.922;9.116;2023-05-19T00:08:52;0.90;;;0.90;;
7573;SDS011;3828;48.922;9.116;2023-05-19T00:11:23;0.90;;;0.90;;
7573;SDS011;3828;48.922;9.116;2023-05-19T00:13:51;0.90;;;0.90;;
7573;SDS011;3828;48.922;9.116;2023-05-19T00:16:19;0.90;;;0.90;;
7573;SDS011;3828;48.922;9.116;2023-05-19T00:18:48;0.90;;;0.90;;
7573;SDS011;3828;48.922;9.116;2023-05-19T00:21:16;0.90;;;0.90;;
7573;SDS011;3828;48.922;9.116;2023-05-19T00:24:01;0.90;;;0.90;;
7573;SDS011;3828;48.922;9.116;2023-05-19T00:26:44;0.80;;;0.80;;
7573;SDS011;3828;48.922;9.116;2023-05-19T00:29:11;0.90;;;0.90;;
7573;SDS011;3828;48.922;9.116;2023-05-19T00:31:42;0.90;;;0.90;;
7573;SDS011;3828;48.922;9.116;2023-05-19T00:34:11;1.00;;;1.00;;
7573;SDS011;3828;48.922;9.116;2023-05-19T00:36:37;0.97;;;0.97;;
7573;SDS011;3828;48.922;9.116;2023-05-19T00:39:04;0.90;;;0.90;;
7573;SDS011;3828;48.922;9.116;2023-05-19T00:41:32;0.90;;;0.90;;
7573;SDS011;3828;48.922;9.116;2023-05-19T00:43:59;0.80;;;0.80;;
7573;SDS011;3828;48.922;9.116;2023-05-19T00:46:26;0.90;;;0.90;;
7573;SDS011;3828;48.922;9.116;2023-05-19T00:48:54;0.90;;;0.90;;
7573;SDS011;3828;48.922;9.116;2023-05-19T00:51:22;0.90;;;0.90;;
7573;SDS011;3828;48.922;9.116;2023-05-19T00:53:51;0.87;;;0.87;;
7573;SDS011;3828;48.922;9.116;2023-05-19T00:56:18;0.90;;;0.90;;
7573;SDS011;3828;48.922;9.116;2023-05-19T00:58:46;0.90;;;0.90;;
7573;SDS011;3828;48.922;9.116;2023-05-19T01:01:15;0.90;;;0.90;;
7573;SDS011;3828;48.922;9.116;2023-05-19T01:03:45;0.90;;;0.90;;
7573;SDS011;3828;48.922;9.116;2023-05-19T01:06:13;0.80;;;0.80;;
7573;SDS011;3828;48.922;9.116;2023-05-19T01:08:44;0.73;;;0.73;;
7573;SDS011;3828;48.922;9.116;2023-05-19T01:11:11;0.80;;;0.80;;
7573;SDS011;3828;48.922;9.116;2023-05-19T01:13:38;0.80;;;0.80;;
7573;SDS011;3828;48.922;9.116;2023-05-19T01:16:06;0.97;;;0.97;;
7573;SDS011;3828;48.922;9.116;2023-05-19T01:18:45;0.90;;;0.90;;
7573;SDS011;3828;48.922;9.116;2023-05-19T01:27:23;0.80;;;0.80;;
7573;SDS011;3828;48.922;9.116;2023-05-19T01:30:24;0.90;;;0.90;;
7573;SDS011;3828;48.922;9.116;2023-05-19T01:32:54;0.90;;;0.90;;
7573;SDS011;3828;48.922;9.116;2023-05-19T01:35:24;0.90;;;0.90;;
7573;SDS011;3828;48.922;9.116;2023-05-19T01:37:53;0.90;;;0.90;;
7573;SDS011;3828;48.922;9.116;2023-05-19T01:40:21;1.00;;;1.00;;
7573;SDS011;3828;48.922;9.116;2023-05-19T01:42:50;0.90;;;0.90;;
7573;SDS011;3828;48.922;9.116;2023-05-19T01:45:19;0.90;;;0.90;;
7573;SDS011;3828;48.922;9.116;2023-05-19T01:47:49;0.80;;;0.80;;
7573;SDS011;3828;48.922;9.116;2023-05-19T01:50:18;0.90;;;0.90;;
7573;SDS011;3828;48.922;9.116;2023-05-19T01:52:45;0.90;;;0.90;;
7573;SDS011;3828;48.922;9.116;2023-05-19T01:55:12;0.90;;;0.90;;
7573;SDS011;3828;48.922;9.116;2023-05-19T01:57:42;0.80;;;0.80;;
7573;SDS011;3828;48.922;9.116;2023-05-19T02:00:14;0.90;;;0.90;;
7573;SDS011;3828;48.922;9.116;2023-05-19T02:02:50;0.90;;;0.90;;
7573;SDS011;3828;48.922;9.116;2023-05-19T02:05:26;0.80;;;0.80;;
7573;SDS011;3828;48.922;9.116;2023-05-19T02:08:00;0.80;;;0.80;;
7573;SDS011;3828;48.922;9.116;2023-05-19T02:10:36;0.90;;;0.90;;
7573;SDS011;3828;48.922;9.116;2023-05-19T02:13:07;0.90;;;0.90;;
7573;SDS011;3828;48.922;9.116;2023-05-19T02:15:39;0.80;;;0.80;;
7573;SDS011;3828;48.922;9.116;2023-05-19T02:18:09;1.10;;;1.10;;
7573;SDS011;3828;48.922;9.116;2023-05-19T02:20:36;1.00;;;1.00;;
7573;SDS011;3828;48.922;9.116;2023-05-19T02:23:04;0.90;;;0.90;;
7573;SDS011;3828;48.922;9.116;2023-05-19T02:25:31;1.00;;;1.00;;
7573;SDS011;3828;48.922;9.116;2023-05-19T02:27:58;0.90;;;0.90;;
7573;SDS011;3828;48.922;9.116;2023-05-19T02:30:25;1.00;;;1.00;;
7573;SDS011;3828;48.922;9.116;2023-05-19T02:32:52;0.80;;;0.80;;
7573;SDS011;3828;48.922;9.116;2023-05-19T02:35:21;1.00;;;1.00;;
7573;SDS011;3828;48.922;9.116;2023-05-19T02:37:48;0.90;;;0.90;;
7573;SDS011;3828;48.922;9.116;2023-05-19T02:40:16;0.90;;;0.90;;
7573;SDS011;3828;48.922;9.116;2023-05-19T02:42:43;1.00;;;1.00;;
7573;SDS011;3828;48.922;9.116;2023-05-19T02:45:10;1.00;;;1.00;;
7573;SDS011;3828;48.922;9.116;2023-05-19T02:47:37;0.90;;;0.90;;
7573;SDS011;3828;48.922;9.116;2023-05-19T02:50:06;0.80;;;0.80;;
7573;SDS011;3828;48.922;9.116;2023-05-19T02:52:34;0.90;;;0.90;;
7573;SDS011;3828;48.922;9.116;2023-05-19T02:55:01;0.90;;;0.90;;
7573;SDS011;3828;48.922;9.116;2023-05-19T02:57:28;0.83;;;0.83;;
7573;SDS011;3828;48.922;9.116;2023-05-19T02:59:57;0.90;;;0.90;;
7573;SDS011;3828;48.922;9.116;2023-05-19T03:02:24;1.00;;;1.00;;
7573;SDS011;3828;48.922;9.116;2023-05-19T03:04:51;0.80;;;0.80;;
7573;SDS011;3828;48.922;9.116;2023-05-19T03:07:19;0.83;;;0.83;;
7573;SDS011;3828;48.922;9.116;2023-05-19T03:09:50;0.70;;;0.70;;
7573;SDS011;3828;48.922;9.116;2023-05-19T03:12:17;0.80;;;0.80;;
7573;SDS011;3828;48.922;9.116;2023-05-19T03:14:44;0.80;;;0.80;;
7573;SDS011;3828;48.922;9.116;2023-05-19T03:17:12;0.90;;;0.90;;
7573;SDS011;3828;48.922;9.116;2023-05-19T03:19:38;0.90;;;0.90;;
7573;SDS011;3828;48.922;9.116;2023-05-19T03:22:06;0.80;;;0.80;;
7573;SDS011;3828;48.922;9.116;2023-05-19T03:24:33;1.00;;;1.00;;
7573;SDS011;3828;48.922;9.116;2023-05-19T03:27:02;0.90;;;0.90;;
7573;SDS011;3828;48.922;9.116;2023-05-19T03:29:30;0.80;;;0.80;;
7573;SDS011;3828;48.922;9.116;2023-05-19T03:31:57;1.00;;;1.00;;
7573;SDS011;3828;48.922;9.116;2023-05-19T03:34:25;0.90;;;0.90;;
7573;SDS011;3828;48.922;9.116;2023-05-19T03:36:52;0.80;;;0.80;;
7573;SDS011;3828;48.922;9.116;2023-05-19T03:39:19;0.87;;;0.87;;
7573;SDS011;3828;48.922;9.116;2023-05-19T03:41:46;1.00;;;1.00;;
7573;SDS011;3828;48.922;9.116;2023-05-19T03:44:15;0.90;;;0.90;;
7573;SDS011;3828;48.922;9.116;2023-05-19T03:46:42;0.90;;;0.90;;
7573;SDS011;3828;48.922;9.116;2023-05-19T03:49:09;0.90;;;0.90;;
7573;SDS011;3828;48.922;9.116;2023-05-19T03:51:37;0.93;;;0.93;;
7573;SDS011;3828;48.922;9.116;2023-05-19T03:54:05;0.90;;;0.90;;
7573;SDS011;3828;48.922;9.116;2023-05-19T03:56:32;1.00;;;1.00;;
7573;SDS011;3828;48.922;9.116;2023-05-19T03:58:59;0.90;;;0.90;;
7573;SDS011;3828;48.922;9.116;2023-05-19T04:01:27;0.80;;;0.80;;
7573;SDS011;3828;48.922;9.116;2023-05-19T04:03:54;0.90;;;0.90;;
7573;SDS011;3828;48.922;9.116;2023-05-19T04:06:21;0.90;;;0.90;;
7573;SDS011;3828;48.922;9.116;2023-05-19T04:08:48;0.83;;;0.83;;
7573;SDS011;3828;48.922;9.116;2023-05-19T04:11:16;0.83;;;0.83;;
7573;SDS011;3828;48.922;9.116;2023-05-19T04:13:44;0.90;;;0.90;;
7573;SDS011;3828;48.922;9.116;2023-05-19T04:16:11;0.90;;;0.90;;
7573;SDS011;3828;48.922;9.116;2023-05-19T04:18:39;0.90;;;0.90;;
7573;SDS011;3828;48.922;9.116;2023-05-19T04:21:06;0.90;;;0.90;;
7573;SDS011;3828;48.922;9.116;2023-05-19T04:23:33;0.90;;;0.90;;
7573;SDS011;3828;48.922;9.116;2023-05-19T04:26:00;0.90;;;0.90;;
7573;SDS011;3828;48.922;9.116;2023-05-19T04:28:27;0.90;;;0.90;;
7573;SDS011;3828;48.922;9.116;2023-05-19T04:30:55;1.00;;;1.00;;
7573;SDS011;3828;48.922;9.116;2023-05-19T04:33:22;1.00;;;1.00;;
7573;SDS011;3828;48.922;9.116;2023-05-19T04:35:51;0.90;;;0.90;;
7573;SDS011;3828;48.922;9.116;2023-05-19T04:38:18;1.00;;;1.00;;
7573;SDS011;3828;48.922;9.116;2023-05-19T04:40:46;0.90;;;0.90;;
7573;SDS011;3828;48.922;9.116;2023-05-19T04:43:14;0.90;;;0.90;;
7573;SDS011;3828;48.922;9.116;2023-05-19T04:45:42;0.90;;;0.90;;
7573;SDS011;3828;48.922;9.116;2023-05-19T04:48:08;0.93;;;0.93;;
7573;SDS011;3828;48.922;9.116;2023-05-19T04:50:36;1.00;;;1.00;;
7573;SDS011;3828;48.922;9.116;2023-05-19T04:53:07;1.00;;;1.00;;
7573;SDS011;3828;48.922;9.116;2023-05-19T04:55:34;0.90;;;0.90;;
7573;SDS011;3828;48.922;9.116;2023-05-19T04:58:02;0.90;;;0.90;;
7573;SDS011;3828;48.922;9.116;2023-05-19T05:00:30;0.90;;;0.90;;
7573;SDS011;3828;48.922;9.116;2023-05-19T05:02:59;1.00;;;1.00;;
7573;SDS011;3828;48.922;9.116;2023-05-19T05:05:28;0.90;;;0.90;;
7573;SDS011;3828;48.922;9.116;2023-05-19T05:07:56;1.00;;;1.00;;
7573;SDS011;3828;48.922;9.116;2023-05-19T05:10:24;0.90;;;0.90;;
7573;SDS011;3828;48.922;9.116;2023-05-19T05:12:51;1.00;;;1.00;;
7573;SDS011;3828;48.922;9.116;2023-05-19T05:15:19;0.90;;;0.90;;
7573;SDS011;3828;48.922;9.116;2023-05-19T05:17:48;1.00;;;1.00;;
7573;SDS011;3828;48.922;9.116;2023-05-19T05:20:15;1.00;;;1.00;;
7573;SDS011;3828;48.922;9.116;2023-05-19T05:22:44;0.80;;;0.80;;
7573;SDS011;3828;48.922;9.116;2023-05-19T05:25:12;0.80;;;0.80;;
7573;SDS011;3828;48.922;9.116;2023-05-19T05:27:43;0.80;;;0.80;;
7573;SDS011;3828;48.922;9.116;2023-05-19T05:30:10;0.80;;;0.80;;
7573;SDS011;3828;48.922;9.116;2023-05-19T05:32:39;0.90;;;0.90;;
7573;SDS011;3828;48.922;9.116;2023-05-19T05:35:07;0.90;;;0.90;;
7573;SDS011;3828;48.922;9.116;2023-05-19T05:37:34;0.90;;;0.90;;
7573;SDS011;3828;48.922;9.116;2023-05-19T05:40:01;0.80;;;0.80;;
7573;SDS011;3828;48.922;9.116;2023-05-19T05:42:28;0.80;;;0.80;;
7573;SDS011;3828;48.922;9.116;2023-05-19T05:44:57;0.80;;;0.80;;
7573;SDS011;3828;48.922;9.116;2023-05-19T05:47:24;0.80;;;0.80;;
7573;SDS011;3828;48.922;9.116;2023-05-19T05:49:51;0.90;;;0.90;;
7573;SDS011;3828;48.922;9.116;2023-05-19T05:52:18;0.83;;;0.83;;
7573;SDS011;3828;48.922;9.116;2023-05-19T05:54:47;0.83;;;0.83;;
7573;SDS011;3828;48.922;9.116;2023-05-19T05:57:15;0.80;;;0.80;;
7573;SDS011;3828;48.922;9.116;2023-05-19T05:59:42;0.90;;;0.90;;
7573;SDS011;3828;48.922;9.116;2023-05-19T06:02:15;0.80;;;0.80;;
7573;SDS011;3828;48.922;9.116;2023-05-19T06:04:42;0.90;;;0.90;;
7573;SDS011;3828;48.922;9.116;2023-05-19T06:07:09;0.90;;;0.90;;
7573;SDS011;3828;48.922;9.116;2023-05-19T06:09:37;0.80;;;0.80;;
7573;SDS011;3828;48.922;9.116;2023-05-19T06:12:04;0.80;;;0.80;;
7573;SDS011;3828;48.922;9.116;2023-05-19T06:14:31;0.90;;;0.90;;
7573;SDS011;3828;48.922;9.116;2023-05-19T06:16:58;0.80;;;0.80;;
7573;SDS011;3828;48.922;9.116;2023-05-19T06:19:27;0.73;;;0.73;;
7573;SDS011;3828;48.922;9.116;2023-05-19T06:21:55;0.80;;;0.80;;
7573;SDS011;3828;48.922;9.116;2023-05-19T06:24:22;0.80;;;0.80;;
7573;SDS011;3828;48.922;9.116;2023-05-19T06:26:49;0.73;;;0.73;;
7573;SDS011;3828;48.922;9.116;2023-05-19T06:29:17;0.80;;;0.80;;
7573;SDS011;3828;48.922;9.116;2023-05-19T06:31:44;0.70;;;0.70;;
7573;SDS011;3828;48.922;9.116;2023-05-19T06:34:11;0.80;;;0.80;;
7573;SDS011;3828;48.922;9.116;2023-05-19T06:36:43;0.80;;;0.80;;
7573;SDS011;3828;48.922;9.116;2023-05-19T06:39:14;0.80;;;0.80;;
7573;SDS011;3828;48.922;9.116;2023-05-19T06:41:45;0.80;;;0.80;;
7573;SDS011;3828;48.922;9.116;2023-05-19T06:44:13;0.83;;;0.83;;
7573;SDS011;3828;48.922;9.116;2023-05-19T06:46:41;0.70;;;0.70;;
7573;SDS011;3828;48.922;9.116;2023-05-19T06:49:08;0.80;;;0.80;;
7573;SDS011;3828;48.922;9.116;2023-05-19T06:51:35;0.80;;;0.80;;
7573;SDS011;3828;48.922;9.116;2023-05-19T06:54:10;0.70;;;0.70;;
7573;SDS011;3828;48.922;9.116;2023-05-19T06:56:39;0.80;;;0.80;;
7573;SDS011;3828;48.922;9.116;2023-05-19T06:59:07;0.70;;;0.70;;
7573;SDS011;3828;48.922;9.116;2023-05-19T07:01:34;0.80;;;0.80;;
7573;SDS011;3828;48.922;9.116;2023-05-19T07:04:01;0.70;;;0.70;;
7573;SDS011;3828;48.922;9.116;2023-05-19T07:06:28;0.70;;;0.70;;
7573;SDS011;3828;48.922;9.116;2023-05-19T07:08:55;0.70;;;0.70;;
7573;SDS011;3828;48.922;9.116;2023-05-19T07:11:25;0.70;;;0.70;;
7573;SDS011;3828;48.922;9.116;2023-05-19T07:13:58;0.70;;;0.70;;
7573;SDS011;3828;48.922;9.116;2023-05-19T07:16:28;0.70;;;0.70;;
7573;SDS011;3828;48.922;9.116;2023-05-19T07:19:08;0.67;;;0.67;;
7573;SDS011;3828;48.922;9.116;2023-05-19T07:21:35;0.70;;;0.70;;
7573;SDS011;3828;48.922;9.116;2023-05-19T07:24:02;0.70;;;0.70;;
7573;SDS011;3828;48.922;9.116;2023-05-19T07:26:31;0.70;;;0.70;;
7573;SDS011;3828;48.922;9.116;2023-05-19T07:28:58;0.60;;;0.60;;
7573;SDS011;3828;48.922;9.116;2023-05-19T07:31:25;0.70;;;0.70;;
7573;SDS011;3828;48.922;9.116;2023-05-19T07:33:52;0.60;;;0.60;;
7573;SDS011;3828;48.922;9.116;2023-05-19T07:36:29;0.60;;;0.60;;
7573;SDS011;3828;48.922;9.116;2023-05-19T07:45:34;0.60;;;0.60;;
7573;SDS011;3828;48.922;9.116;2023-05-19T07:48:10;0.60;;;0.60;;
7573;SDS011;3828;48.922;9.116;2023-05-19T07:53:29;0.60;;;0.60;;
7573;SDS011;3828;48.922;9.116;2023-05-19T07:55:56;0.60;;;0.60;;
7573;SDS011;3828;48.922;9.116;2023-05-19T07:58:24;0.67;;;0.67;;
7573;SDS011;3828;48.922;9.116;2023-05-19T08:00:51;0.60;;;0.60;;
7573;SDS011;3828;48.922;9.116;2023-05-19T08:03:18;0.60;;;0.60;;
7573;SDS011;3828;48.922;9.116;2023-05-19T08:05:47;0.60;;;0.60;;
7573;SDS011;3828;48.922;9.116;2023-05-19T08:08:14;0.60;;;0.60;;
7573;SDS011;3828;48.922;9.116;2023-05-19T08:10:43;0.60;;;0.60;;
7573;SDS011;3828;48.922;9.116;2023-05-19T08:13:10;0.60;;;0.60;;
7573;SDS011;3828;48.922;9.116;2023-05-19T08:15:38;0.60;;;0.60;;
7573;SDS011;3828;48.922;9.116;2023-05-19T08:18:06;0.60;;;0.60;;
7573;SDS011;3828;48.922;9.116;2023-05-19T08:20:33;0.60;;;0.60;;
7573;SDS011;3828;48.922;9.116;2023-05-19T08:23:01;0.60;;;0.60;;
7573;SDS011;3828;48.922;9.116;2023-05-19T08:25:28;0.60;;;0.60;;
7573;SDS011;3828;48.922;9.116;2023-05-19T08:28:04;0.60;;;0.60;;
7573;SDS011;3828;48.922;9.116;2023-05-19T08:30:32;0.60;;;0.60;;
7573;SDS011;3828;48.922;9.116;2023-05-19T08:33:00;0.70;;;0.70;;
7573;SDS011;3828;48.922;9.116;2023-05-19T08:35:27;0.60;;;0.60;;
7573;SDS011;3828;48.922;9.116;2023-05-19T08:37:54;0.70;;;0.70;;
7573;SDS011;3828;48.922;9.116;2023-05-19T08:40:21;0.70;;;0.70;;
7573;SDS011;3828;48.922;9.116;2023-05-19T08:42:48;0.50;;;0.50;;
7573;SDS011;3828;48.922;9.116;2023-05-19T08:45:15;0.70;;;0.70;;
7573;SDS011;3828;48.922;9.116;2023-05-19T08:47:43;0.60;;;0.60;;
7573;SDS011;3828;48.922;9.116;2023-05-19T08:50:13;0.70;;;0.70;;
7573;SDS011;3828;48.922;9.116;2023-05-19T08:52:49;0.60;;;0.60;;
7573;SDS011;3828;48.922;9.116;2023-05-19T08:55:18;0.60;;;0.60;;
7573;SDS011;3828;48.922;9.116;2023-05-19T08:57:55;0.60;;;0.60;;
7573;SDS011;3828;48.922;9.116;2023-05-19T09:00:22;0.70;;;0.70;;
7573;SDS011;3828;48.922;9.116;2023-05-19T09:02:49;0.60;;;0.60;;
7573;SDS011;3828;48.922;9.116;2023-05-19T09:05:20;0.70;;;0.70;;
7573;SDS011;3828;48.922;9.116;2023-05-19T09:07:47;0.70;;;0.70;;
7573;SDS011;3828;48.922;9.116;2023-05-19T09:10:14;0.70;;;0.70;;
7573;SDS011;3828;48.922;9.116;2023-05-19T09:12:41;0.70;;;0.70;;
7573;SDS011;3828;48.922;9.116;2023-05-19T09:15:11;0.60;;;0.60;;
7573;SDS011;3828;48.922;9.116;2023-05-19T09:17:41;0.60;;;0.60;;
7573;SDS011;3828;48.922;9.116;2023-05-19T09:20:08;0.70;;;0.70;;
7573;SDS011;3828;48.922;9.116;2023-05-19T09:22:43;0.70;;;0.70;;
7573;SDS011;3828;48.922;9.116;2023-05-19T09:25:17;0.73;;;0.73;;
7573;SDS011;3828;48.922;9.116;2023-05-19T09:27:45;0.63;;;0.63;;
7573;SDS011;3828;48.922;9.116;2023-05-19T09:30:13;0.70;;;0.70;;
7573;SDS011;3828;48.922;9.116;2023-05-19T09:32:40;0.60;;;0.60;;
7573;SDS011;3828;48.922;9.116;2023-05-19T09:35:08;0.60;;;0.60;;
7573;SDS011;3828;48.922;9.116;2023-05-19T09:37:37;0.60;;;0.60;;
7573;SDS011;3828;48.922;9.116;2023-05-19T09:40:07;0.70;;;0.70;;
7573;SDS011;3828;48.922;9.116;2023-05-19T09:42:38;0.60;;;0.60;;
7573;SDS011;3828;48.922;9.116;2023-05-19T09:45:05;0.60;;;0.60;;
7573;SDS011;3828;48.922;9.116;2023-05-19T09:47:33;0.60;;;0.60;;
7573;SDS011;3828;48.922;9.116;2023-05-19T09:50:03;0.60;;;0.60;;
7573;SDS011;3828;48.922;9.116;2023-05-19T09:52:33;0.70;;;0.70;;
7573;SDS011;3828;48.922;9.116;2023-05-19T09:55:04;0.70;;;0.70;;
7573;SDS011;3828;48.922;9.116;2023-05-19T09:57:37;0.50;;;0.50;;
7573;SDS011;3828;48.922;9.116;2023-05-19T10:00:06;0.70;;;0.70;;
7573;SDS011;3828;48.922;9.116;2023-05-19T10:02:38;0.70;;;0.70;;
7573;SDS011;3828;48.922;9.116;2023-05-19T10:05:07;0.70;;;0.70;;
7573;SDS011;3828;48.922;9.116;2023-05-19T10:07:36;0.60;;;0.60;;
7573;SDS011;3828;48.922;9.116;2023-05-19T10:10:06;0.60;;;0.60;;
7573;SDS011;3828;48.922;9.116;2023-05-19T10:12:38;0.60;;;0.60;;
7573;SDS011;3828;48.922;9.116;2023-05-19T10:15:07;0.60;;;0.60;;
7573;SDS011;3828;48.922;9.116;2023-05-19T10:17:36;0.70;;;0.70;;
7573;SDS011;3828;48.922;9.116;2023-05-19T10:22:59;0.60;;;0.60;;
7573;SDS011;3828;48.922;9.116;2023-05-19T10:25:27;0.60;;;0.60;;
7573;SDS011;3828;48.922;9.116;2023-05-19T10:27:59;0.60;;;0.60;;
7573;SDS011;3828;48.922;9.116;2023-05-19T10:30:32;0.60;;;0.60;;
7573;SDS011;3828;48.922;9.116;2023-05-19T10:33:02;0.60;;;0.60;;
7573;SDS011;3828;48.922;9.116;2023-05-19T10:38:46;0.60;;;0.60;;
7573;SDS011;3828;48.922;9.116;2023-05-19T10:41:20;0.60;;;0.60;;
7573;SDS011;3828;48.922;9.116;2023-05-19T10:43:57;0.60;;;0.60;;
7573;SDS011;3828;48.922;9.116;2023-05-19T10:46:32;0.60;;;0.60;;
7573;SDS011;3828;48.922;9.116;2023-05-19T10:49:00;0.60;;;0.60;;
7573;SDS011;3828;48.922;9.116;2023-05-19T10:51:27;0.60;;;0.60;;
7573;SDS011;3828;48.922;9.116;2023-05-19T10:53:56;0.60;;;0.60;;
7573;SDS011;3828;48.922;9.116;2023-05-19T10:56:27;0.60;;;0.60;;
7573;SDS011;3828;48.922;9.116;2023-05-19T10:58:58;0.50;;;0.50;;
7573;SDS011;3828;48.922;9.116;2023-05-19T11:01:29;0.60;;;0.60;;
7573;SDS011;3828;48.922;9.116;2023-05-19T11:04:01;0.60;;;0.60;;
7573;SDS011;3828;48.922;9.116;2023-05-19T11:06:30;0.40;;;0.40;;
7573;SDS011;3828;48.922;9.116;2023-05-19T11:09:00;0.60;;;0.60;;
7573;SDS011;3828;48.922;9.116;2023-05-19T11:11:44;0.50;;;0.50;;
7573;SDS011;3828;48.922;9.116;2023-05-19T11:14:14;0.60;;;0.60;;
7573;SDS011;3828;48.922;9.116;2023-05-19T11:16:45;0.60;;;0.60;;
7573;SDS011;3828;48.922;9.116;2023-05-19T11:19:16;0.60;;;0.60;;
7573;SDS011;3828;48.922;9.116;2023-05-19T11:21:48;0.60;;;0.60;;
7573;SDS011;3828;48.922;9.116;2023-05-19T11:24:35;0.50;;;0.50;;
7573;SDS011;3828;48.922;9.116;2023-05-19T11:27:19;0.50;;;0.50;;
7573;SDS011;3828;48.922;9.116;2023-05-19T11:29:59;0.50;;;0.50;;
7573;SDS011;3828;48.922;9.116;2023-05-19T11:32:49;0.60;;;0.60;;
7573;SDS011;3828;48.922;9.116;2023-05-19T11:35:19;0.50;;;0.50;;
7573;SDS011;3828;48.922;9.116;2023-05-19T11:37:49;0.60;;;0.60;;
7573;SDS011;3828;48.922;9.116;2023-05-19T11:40:27;0.60;;;0.60;;
7573;SDS011;3828;48.922;9.116;2023-05-19T11:43:22;0.70;;;0.70;;
7573;SDS011;3828;48.922;9.116;2023-05-19T11:45:51;0.60;;;0.60;;
7573;SDS011;3828;48.922;9.116;2023-05-19T11:48:22;0.60;;;0.60;;
7573;SDS011;3828;48.922;9.116;2023-05-19T11:51:01;0.70;;;0.70;;
7573;SDS011;3828;48.922;9.116;2023-05-19T11:53:28;0.60;;;0.60;;
7573;SDS011;3828;48.922;9.116;2023-05-19T11:55:56;0.60;;;0.60;;
7573;SDS011;3828;48.922;9.116;2023-05-19T11:58:31;0.50;;;0.50;;
7573;SDS011;3828;48.922;9.116;2023-05-19T12:01:07;0.60;;;0.60;;
7573;SDS011;3828;48.922;9.116;2023-05-19T12:03:40;0.60;;;0.60;;
7573;SDS011;3828;48.922;9.116;2023-05-19T12:09:15;0.50;;;0.50;;
7573;SDS011;3828;48.922;9.116;2023-05-19T12:11:42;0.50;;;0.50;;
7573;SDS011;3828;48.922;9.116;2023-05-19T12:14:10;0.50;;;0.50;;
7573;SDS011;3828;48.922;9.116;2023-05-19T12:16:39;0.50;;;0.50;;
7573;SDS011;3828;48.922;9.116;2023-05-19T12:19:06;0.50;;;0.50;;
7573;SDS011;3828;48.922;9.116;2023-05-19T12:21:34;0.50;;;0.50;;
7573;SDS011;3828;48.922;9.116;2023-05-19T12:24:01;0.60;;;0.60;;
7573;SDS011;3828;48.922;9.116;2023-05-19T12:26:28;0.60;;;0.60;;
7573;SDS011;3828;48.922;9.116;2023-05-19T12:28:56;0.57;;;0.57;;
7573;SDS011;3828;48.922;9.116;2023-05-19T12:31:24;0.60;;;0.60;;
7573;SDS011;3828;48.922;9.116;2023-05-19T12:33:52;0.60;;;0.60;;
7573;SDS011;3828;48.922;9.116;2023-05-19T12:36:22;0.50;;;0.50;;
7573;SDS011;3828;48.922;9.116;2023-05-19T12:38:52;0.60;;;0.60;;
7573;SDS011;3828;48.922;9.116;2023-05-19T12:41:19;0.50;;;0.50;;
7573;SDS011;3828;48.922;9.116;2023-05-19T12:43:47;0.60;;;0.60;;
7573;SDS011;3828;48.922;9.116;2023-05-19T12:46:14;0.60;;;0.60;;
7573;SDS011;3828;48.922;9.116;2023-05-19T12:48:43;0.50;;;0.50;;
7573;SDS011;3828;48.922;9.116;2023-05-19T12:51:16;0.60;;;0.60;;
7573;SDS011;3828;48.922;9.116;2023-05-19T12:53:43;0.60;;;0.60;;
7573;SDS011;3828;48.922;9.116;2023-05-19T12:56:11;0.60;;;0.60;;
7573;SDS011;3828;48.922;9.116;2023-05-19T12:58:39;0.60;;;0.60;;
7573;SDS011;3828;48.922;9.116;2023-05-19T13:01:06;0.60;;;0.60;;
7573;SDS011;3828;48.922;9.116;2023-05-19T13:03:40;0.60;;;0.60;;
7573;SDS011;3828;48.922;9.116;2023-05-19T13:06:07;0.60;;;0.60;;
7573;SDS011;3828;48.922;9.116;2023-05-19T13:08:36;0.60;;;0.60;;
7573;SDS011;3828;48.922;9.116;2023-05-19T13:11:04;0.60;;;0.60;;
7573;SDS011;3828;48.922;9.116;2023-05-19T13:13:30;0.63;;;0.63;;
7573;SDS011;3828;48.922;9.116;2023-05-19T13:15:58;0.60;;;0.60;;
7573;SDS011;3828;48.922;9.116;2023-05-19T13:18:25;0.60;;;0.60;;
7573;SDS011;3828;48.922;9.116;2023-05-19T13:20:56;0.60;;;0.60;;
7573;SDS011;3828;48.922;9.116;2023-05-19T13:23:23;0.60;;;0.60;;
7573;SDS011;3828;48.922;9.116;2023-05-19T13:25:52;0.60;;;0.60;;
7573;SDS011;3828;48.922;9.116;2023-05-19T13:28:20;0.60;;;0.60;;
7573;SDS011;3828;48.922;9.116;2023-05-19T13:30:47;0.60;;;0.60;;
7573;SDS011;3828;48.922;9.116;2023-05-19T13:33:23;0.60;;;0.60;;
7573;SDS011;3828;48.922;9.116;2023-05-19T13:35:50;0.60;;;0.60;;
7573;SDS011;3828;48.922;9.116;2023-05-19T13:38:21;0.60;;;0.60;;
7573;SDS011;3828;48.922;9.116;2023-05-19T13:40:48;0.60;;;0.60;;
7573;SDS011;3828;48.922;9.116;2023-05-19T13:43:16;0.70;;;0.70;;
7573;SDS011;3828;48.922;9.116;2023-05-19T13:45:43;0.63;;;0.63;;
7573;SDS011;3828;48.922;9.116;2023-05-19T13:48:10;0.60;;;0.60;;
7573;SDS011;3828;48.922;9.116;2023-05-19T13:50:40;0.60;;;0.60;;
7573;SDS011;3828;48.922;9.116;2023-05-19T13:53:07;0.60;;;0.60;;
7573;SDS011;3828;48.922;9.116;2023-05-19T13:55:36;0.60;;;0.60;;
7573;SDS011;3828;48.922;9.116;2023-05-19T13:58:03;0.60;;;0.60;;
7573;SDS011;3828;48.922;9.116;2023-05-19T14:00:35;0.60;;;0.60;;
7573;SDS011;3828;48.922;9.116;2023-05-19T14:03:02;0.60;;;0.60;;
7573;SDS011;3828;48.922;9.116;2023-05-19T14:05:29;0.60;;;0.60;;
7573;SDS011;3828;48.922;9.116;2023-05-19T14:07:56;0.70;;;0.70;;
7573;SDS011;3828;48.922;9.116;2023-05-19T14:10:25;0.60;;;0.60;;
7573;SDS011;3828;48.922;9.116;2023-05-19T14:12:52;0.60;;;0.60;;
7573;SDS011;3828;48.922;9.116;2023-05-19T14:15:20;0.60;;;0.60;;
7573;SDS011;3828;48.922;9.116;2023-05-19T14:17:48;0.60;;;0.60;;
7573;SDS011;3828;48.922;9.116;2023-05-19T14:20:17;0.50;;;0.50;;
7573;SDS011;3828;48.922;9.116;2023-05-19T14:22:44;0.60;;;0.60;;
7573;SDS011;3828;48.922;9.116;2023-05-19T14:25:11;0.60;;;0.60;;
7573;SDS011;3828;48.922;9.116;2023-05-19T14:27:38;0.60;;;0.60;;
7573;SDS011;3828;48.922;9.116;2023-05-19T14:30:06;0.60;;;0.60;;
7573;SDS011;3828;48.922;9.116;2023-05-19T14:32:34;0.60;;;0.60;;
7573;SDS011;3828;48.922;9.116;2023-05-19T14:35:02;0.60;;;0.60;;
7573;SDS011;3828;48.922;9.116;2023-05-19T14:37:30;0.60;;;0.60;;
7573;SDS011;3828;48.922;9.116;2023-05-19T14:39:57;0.60;;;0.60;;
7573;SDS011;3828;48.922;9.116;2023-05-19T14:42:24;0.60;;;0.60;;
7573;SDS011;3828;48.922;9.116;2023-05-19T14:44:51;0.60;;;0.60;;
7573;SDS011;3828;48.922;9.116;2023-05-19T14:47:18;0.60;;;0.60;;
7573;SDS011;3828;48.922;9.116;2023-05-19T14:49:45;0.60;;;0.60;;
7573;SDS011;3828;48.922;9.116;2023-05-19T14:52:13;0.60;;;0.60;;
7573;SDS011;3828;48.922;9.116;2023-05-19T14:54:41;0.50;;;0.50;;
7573;SDS011;3828;48.922;9.116;2023-05-19T14:57:10;0.60;;;0.60;;
7573;SDS011;3828;48.922;9.116;2023-05-19T14:59:37;0.60;;;0.60;;
7573;SDS011;3828;48.922;9.116;2023-05-19T15:02:04;0.50;;;0.50;;
7573;SDS011;3828;48.922;9.116;2023-05-19T15:04:32;0.50;;;0.50;;
7573;SDS011;3828;48.922;9.116;2023-05-19T15:07:01;0.60;;;0.60;;
7573;SDS011;3828;48.922;9.116;2023-05-19T15:09:36;0.60;;;0.60;;
7573;SDS011;3828;48.922;9.116;2023-05-19T15:12:04;0.60;;;0.60;;
7573;SDS011;3828;48.922;9.116;2023-05-19T15:14:31;0.60;;;0.60;;
7573;SDS011;3828;48.922;9.116;2023-05-19T15:16:58;0.60;;;0.60;;
7573;SDS011;3828;48.922;9.116;2023-05-19T15:19:25;0.60;;;0.60;;
7573;SDS011;3828;48.922;9.116;2023-05-19T15:21:52;0.50;;;0.50;;
7573;SDS011;3828;48.922;9.116;2023-05-19T15:24:19;0.60;;;0.60;;
7573;SDS011;3828;48.922;9.116;2023-05-19T15:26:47;0.60;;;0.60;;
7573;SDS011;3828;48.922;9.116;2023-05-19T15:29:15;0.60;;;0.60;;
7573;SDS011;3828;48.922;9.116;2023-05-19T15:31:41;0.50;;;0.50;;
7573;SDS011;3828;48.922;9.116;2023-05-19T15:34:08;0.60;;;0.60;;
7573;SDS011;3828;48.922;9.116;2023-05-19T15:36:35;0.50;;;0.50;;
7573;SDS011;3828;48.922;9.116;2023-05-19T15:39:02;0.50;;;0.50;;
7573;SDS011;3828;48.922;9.116;2023-05-19T15:41:30;0.50;;;0.50;;
7573;SDS011;3828;48.922;9.116;2023-05-19T15:43:58;0.50;;;0.50;;
7573;SDS011;3828;48.922;9.116;2023-05-19T15:46:26;0.50;;;0.50;;
7573;SDS011;3828;48.922;9.116;2023-05-19T15:48:53;0.50;;;0.50;;
7573;SDS011;3828;48.922;9.116;2023-05-19T15:51:20;0.50;;;0.50;;